Time;durP1;ratioP1;P1;durP2;ratioP2;P2;SDS_P1;SDS_P2;PMS_P1;PMS_P2;Temp;Humidity;BMP_temperature;BMP_pressure;BME280_temperature;BME280_humidity;BME280_pressure;Samples;Min_cycle;Max_cycle;Signal;HPM_P1;HPM_P2
2022/07/14 00:00:51;;;;;;;2.77;2.10;;;20.80;99.90;;;;;;5072721;28;20181;-72
2022/07/14 00:03:16;;;;;;;4.63;2.30;;;20.80;99.90;;;;;;5072650;28;20404;-72
2022/07/14 00:05:42;;;;;;;2.00;1.53;;;20.80;99.90;;;;;;5072448;28;20969;-72
2022/07/14 00:08:08;;;;;;;5.43;1.97;;;20.80;99.90;;;;;;5071243;28;20197;-72
2022/07/14 00:10:33;;;;;;;3.90;1.93;;;20.70;99.90;;;;;;5072572;28;20190;-71
2022/07/14 00:12:59;;;;;;;2.67;1.97;;;20.70;99.90;;;;;;5072551;28;20247;-72
2022/07/14 00:15:25;;;;;;;4.07;3.57;;;20.70;99.90;;;;;;5072146;28;20260;-72
2022/07/14 00:17:51;;;;;;;2.07;1.50;;;20.70;99.90;;;;;;5071042;28;20166;-72
2022/07/14 00:20:17;;;;;;;5.40;2.13;;;20.60;99.90;;;;;;5071042;28;20905;-72
2022/07/14 00:22:42;;;;;;;1.70;1.60;;;20.60;99.90;;;;;;5072340;28;20177;-72
2022/07/14 00:25:08;;;;;;;3.60;2.30;;;20.50;99.90;;;;;;5072031;28;20409;-72
2022/07/14 00:27:37;;;;;;;11.80;3.20;;;20.50;99.90;;;;;;5072343;28;20166;-72
2022/07/14 00:30:05;;;;;;;3.17;1.67;;;20.50;99.90;;;;;;5072206;28;20190;-72
2022/07/14 00:32:31;;;;;;;3.77;2.20;;;20.40;99.90;;;;;;5072122;28;20400;-72
2022/07/14 00:34:57;;;;;;;1.57;1.43;;;20.40;99.90;;;;;;5071855;28;20443;-72
2022/07/14 00:37:23;;;;;;;1.77;1.47;;;20.40;99.90;;;;;;5071838;28;20396;-72
2022/07/14 00:39:54;;;;;;;3.30;2.00;;;20.30;99.90;;;;;;5072024;28;20434;-72
2022/07/14 00:42:49;;;;;;;2.17;1.97;;;20.20;99.90;;;;;;5071779;28;20224;-72
2022/07/14 00:45:17;;;;;;;5.03;1.87;;;20.20;99.90;;;;;;5063573;28;20447;-73
2022/07/14 00:47:44;;;;;;;2.70;1.60;;;20.10;99.90;;;;;;5074533;28;20400;-74
2022/07/14 00:50:12;;;;;;;6.50;1.93;;;20.10;99.90;;;;;;5073922;28;20479;-74
2022/07/14 00:52:38;;;;;;;2.17;1.73;;;20.10;99.90;;;;;;5072648;28;20435;-73
2022/07/14 00:55:04;;;;;;;2.43;1.60;;;20.00;99.90;;;;;;5071519;28;20456;-73
2022/07/14 00:57:30;;;;;;;5.43;2.60;;;20.00;99.90;;;;;;5071935;28;20477;-73
2022/07/14 00:59:56;;;;;;;2.20;2.00;;;20.00;99.90;;;;;;5071675;28;20989;-72
2022/07/14 01:02:22;;;;;;;1.63;1.43;;;20.00;99.90;;;;;;5071954;28;20170;-72
2022/07/14 01:04:48;;;;;;;3.50;1.70;;;20.00;99.90;;;;;;5072777;28;20185;-74
2022/07/14 01:07:15;;;;;;;3.20;1.37;;;19.90;99.90;;;;;;5074303;28;20169;-74
2022/07/14 01:09:41;;;;;;;5.67;1.90;;;19.90;99.90;;;;;;5074134;28;20474;-73
2022/07/14 01:12:08;;;;;;;1.73;1.53;;;19.90;99.90;;;;;;5070491;28;20400;-73
2022/07/14 01:14:35;;;;;;;5.83;2.50;;;19.90;99.90;;;;;;5074079;28;20806;-73
2022/07/14 01:17:02;;;;;;;6.27;2.13;;;19.90;99.90;;;;;;5070892;28;20413;-72
2022/07/14 01:19:27;;;;;;;2.93;2.03;;;19.90;99.90;;;;;;5071402;28;20420;-72
2022/07/14 01:21:54;;;;;;;2.60;1.40;;;19.80;99.90;;;;;;5071638;28;20404;-73
2022/07/14 01:24:22;;;;;;;1.70;1.40;;;19.90;99.90;;;;;;5071281;28;20189;-73
2022/07/14 01:26:48;;;;;;;2.00;1.90;;;19.80;99.90;;;;;;5071574;28;20436;-73
2022/07/14 01:29:14;;;;;;;1.70;1.60;;;19.80;99.90;;;;;;5071397;28;20460;-73
2022/07/14 01:31:40;;;;;;;5.47;2.00;;;19.70;99.90;;;;;;5070253;28;20405;-72
2022/07/14 01:34:05;;;;;;;2.27;2.03;;;19.70;99.90;;;;;;5071434;28;20440;-72
2022/07/14 01:36:31;;;;;;;3.87;2.60;;;19.70;99.90;;;;;;5070909;28;20175;-72
2022/07/14 01:38:57;;;;;;;4.93;1.77;;;19.70;99.90;;;;;;5071129;28;20675;-72
2022/07/14 01:41:23;;;;;;;1.63;1.50;;;19.70;99.90;;;;;;5071510;28;20163;-73
2022/07/14 01:43:49;;;;;;;5.37;2.37;;;19.70;99.90;;;;;;5071640;28;20163;-72
2022/07/14 01:46:14;;;;;;;8.13;3.17;;;19.70;99.90;;;;;;5071158;28;20894;-73
2022/07/14 01:48:41;;;;;;;2.27;1.70;;;19.60;99.90;;;;;;5071399;28;20451;-73
2022/07/14 01:51:07;;;;;;;6.73;3.00;;;19.70;99.90;;;;;;5071220;28;20631;-73
2022/07/14 01:53:32;;;;;;;4.63;1.70;;;19.60;99.90;;;;;;5069875;28;20420;-73
2022/07/14 01:55:58;;;;;;;3.10;2.80;;;19.60;99.90;;;;;;5073447;28;20415;-73
2022/07/14 01:58:24;;;;;;;4.73;1.90;;;19.60;99.90;;;;;;5075111;28;20515;-73
2022/07/14 02:03:34;;;;;;;3.03;2.03;;;19.50;99.90;;;;;;5075132;28;20175;-72
2022/07/14 02:06:00;;;;;;;3.17;2.20;;;19.40;99.90;;;;;;5074677;28;20401;-72
2022/07/14 02:08:26;;;;;;;2.40;1.80;;;19.40;99.90;;;;;;5074936;28;20193;-73
2022/07/14 02:13:36;;;;;;;3.83;1.77;;;19.30;99.90;;;;;;5075023;28;20915;-73
2022/07/14 02:16:01;;;;;;;3.00;1.93;;;19.30;99.90;;;;;;5074569;28;20404;-73
2022/07/14 02:18:27;;;;;;;2.70;1.83;;;19.30;99.90;;;;;;5074820;28;20169;-72
2022/07/14 02:20:52;;;;;;;5.63;3.50;;;19.20;99.90;;;;;;5074596;28;20166;-72
2022/07/14 02:23:18;;;;;;;4.30;2.23;;;19.20;99.90;;;;;;5074637;28;20170;-72
2022/07/14 02:25:43;;;;;;;2.07;1.53;;;19.10;99.90;;;;;;5074331;28;20673;-73
2022/07/14 02:28:09;;;;;;;3.37;1.77;;;19.10;99.90;;;;;;5077157;28;20768;-74
2022/07/14 02:30:35;;;;;;;2.40;2.00;;;19.10;99.90;;;;;;5077012;28;20186;-73
2022/07/14 02:33:00;;;;;;;4.00;2.80;;;19.10;99.90;;;;;;5076845;28;20635;-73
2022/07/14 02:35:27;;;;;;;4.27;1.67;;;19.10;99.90;;;;;;5076318;28;20187;-73
2022/07/14 02:37:52;;;;;;;2.00;1.67;;;19.00;99.90;;;;;;5076760;28;20412;-73
2022/07/14 02:40:18;;;;;;;3.87;2.90;;;19.00;99.90;;;;;;5077576;28;20424;-73
2022/07/14 02:42:43;;;;;;;4.90;2.53;;;19.00;99.90;;;;;;5075843;28;20260;-72
2022/07/14 02:45:09;;;;;;;3.30;2.17;;;19.00;99.90;;;;;;5073879;28;20214;-72
2022/07/14 02:47:35;;;;;;;6.80;1.80;;;19.00;99.90;;;;;;5074256;28;20251;-72
2022/07/14 02:50:01;;;;;;;10.60;2.93;;;19.00;99.90;;;;;;5074390;28;20455;-72
2022/07/14 02:52:26;;;;;;;3.20;2.07;;;19.00;99.90;;;;;;5074038;28;20182;-73
2022/07/14 02:54:53;;;;;;;4.07;3.17;;;19.00;99.90;;;;;;5075931;28;20309;-73
2022/07/14 02:57:18;;;;;;;9.07;4.27;;;19.00;99.90;;;;;;5074617;28;20432;-73
2022/07/14 02:59:44;;;;;;;2.23;1.73;;;19.00;99.90;;;;;;5074017;28;20182;-72
2022/07/14 03:02:09;;;;;;;3.50;2.13;;;19.00;99.90;;;;;;5073874;28;20569;-72
2022/07/14 03:04:36;;;;;;;2.37;1.70;;;19.00;99.90;;;;;;5073650;28;20233;-73
2022/07/14 03:07:01;;;;;;;3.40;2.57;;;18.90;99.90;;;;;;5073355;28;20176;-73
2022/07/14 03:09:27;;;;;;;2.10;1.90;;;18.90;99.90;;;;;;5073711;28;20424;-73
2022/07/14 03:11:53;;;;;;;3.53;2.60;;;18.90;99.90;;;;;;5073773;28;20167;-72
2022/07/14 03:14:18;;;;;;;12.93;3.20;;;18.90;99.90;;;;;;5073386;28;20241;-72
2022/07/14 03:16:44;;;;;;;2.13;1.93;;;18.80;99.90;;;;;;5074097;28;20416;-74
2022/07/14 03:19:10;;;;;;;5.10;2.30;;;18.80;99.90;;;;;;5074276;28;20659;-73
2022/07/14 03:21:36;;;;;;;5.20;2.20;;;18.80;99.90;;;;;;5073627;28;20539;-73
2022/07/14 03:24:01;;;;;;;3.40;2.20;;;18.80;99.90;;;;;;5073432;28;20756;-73
2022/07/14 03:26:29;;;;;;;2.00;1.70;;;18.70;99.90;;;;;;5073238;28;20253;-72
2022/07/14 03:28:54;;;;;;;3.43;2.43;;;18.70;99.90;;;;;;5073649;28;20197;-74
2022/07/14 03:31:20;;;;;;;5.50;1.83;;;18.70;99.90;;;;;;5076165;28;20416;-73
2022/07/14 03:33:46;;;;;;;4.80;2.37;;;18.70;99.90;;;;;;5074311;28;20817;-72
2022/07/14 03:36:12;;;;;;;2.73;2.53;;;18.60;99.90;;;;;;5073164;28;20166;-72
2022/07/14 03:38:37;;;;;;;2.13;1.77;;;18.60;99.90;;;;;;5073079;28;20750;-72
2022/07/14 03:41:04;;;;;;;1.90;1.80;;;18.60;99.90;;;;;;5073161;28;20491;-72
2022/07/14 03:43:30;;;;;;;4.33;1.60;;;18.60;99.90;;;;;;5073203;28;20539;-72
2022/07/14 03:45:55;;;;;;;5.13;2.40;;;18.60;99.90;;;;;;5075009;28;20404;-73
2022/07/14 03:48:21;;;;;;;2.63;1.80;;;18.60;99.90;;;;;;5075503;28;20167;-73
2022/07/14 03:50:47;;;;;;;4.60;1.90;;;18.60;99.90;;;;;;5074318;28;20174;-73
2022/07/14 03:53:13;;;;;;;2.30;2.10;;;18.60;99.90;;;;;;5073436;28;20424;-73
2022/07/14 03:55:39;;;;;;;3.67;1.70;;;18.60;99.90;;;;;;5073981;28;20813;-73
2022/07/14 03:58:04;;;;;;;7.33;3.10;;;18.60;99.90;;;;;;5072922;28;20169;-73
2022/07/14 04:00:30;;;;;;;3.63;2.67;;;18.60;99.90;;;;;;5072772;28;20186;-73
2022/07/14 04:02:56;;;;;;;5.67;2.63;;;18.60;99.90;;;;;;5072786;28;20531;-73
2022/07/14 04:05:22;;;;;;;4.47;2.40;;;18.60;99.90;;;;;;5072381;28;20535;-73
2022/07/14 04:07:48;;;;;;;3.87;2.67;;;18.60;99.90;;;;;;5072803;28;20683;-73
2022/07/14 04:10:14;;;;;;;2.23;2.03;;;18.60;99.90;;;;;;5072345;28;20459;-73
2022/07/14 04:12:39;;;;;;;3.63;2.17;;;18.60;99.90;;;;;;5071256;28;20436;-73
2022/07/14 04:15:05;;;;;;;7.17;2.73;;;18.60;99.90;;;;;;5072122;28;20693;-73
2022/07/14 04:17:31;;;;;;;3.50;1.77;;;18.50;99.90;;;;;;5074044;28;20679;-73
2022/07/14 04:19:56;;;;;;;3.07;2.77;;;18.50;99.90;;;;;;5074436;28;20420;-73
2022/07/14 04:22:22;;;;;;;3.30;1.90;;;18.50;99.90;;;;;;5074694;28;20253;-73
2022/07/14 04:24:47;;;;;;;3.83;2.30;;;18.50;99.90;;;;;;5072864;28;20170;-73
2022/07/14 04:27:13;;;;;;;3.20;2.30;;;18.50;99.90;;;;;;5072293;28;20185;-73
2022/07/14 04:29:38;;;;;;;4.90;2.10;;;18.60;99.90;;;;;;5072094;28;20281;-73
2022/07/14 04:32:04;;;;;;;3.07;2.17;;;18.60;99.90;;;;;;5072280;28;20177;-73
2022/07/14 04:34:30;;;;;;;3.33;2.43;;;18.60;99.90;;;;;;5071943;28;20194;-72
2022/07/14 04:36:55;;;;;;;4.13;3.00;;;18.50;99.90;;;;;;5072247;28;20508;-73
2022/07/14 04:39:21;;;;;;;5.63;2.30;;;18.60;99.90;;;;;;5072173;28;20240;-73
2022/07/14 04:41:47;;;;;;;6.90;2.50;;;18.60;99.90;;;;;;5072192;28;20197;-73
2022/07/14 04:44:12;;;;;;;3.80;2.20;;;18.60;99.90;;;;;;5071933;28;20166;-72
2022/07/14 04:46:38;;;;;;;3.00;1.73;;;18.60;99.90;;;;;;5070588;28;20178;-73
2022/07/14 04:52:02;;;;;;;4.37;3.17;;;18.60;99.90;;;;;;5074159;28;20177;-72
2022/07/14 04:54:30;;;;;;;7.30;2.30;;;18.60;99.90;;;;;;5070429;28;20470;-72
2022/07/14 04:56:55;;;;;;;2.27;1.57;;;18.60;99.90;;;;;;5072472;28;20891;-73
2022/07/14 04:59:21;;;;;;;2.90;2.20;;;18.70;99.90;;;;;;5074353;28;20463;-72
2022/07/14 05:01:47;;;;;;;3.00;2.00;;;18.70;99.90;;;;;;5071865;28;20194;-72
2022/07/14 05:04:12;;;;;;;3.20;2.47;;;18.80;99.90;;;;;;5071853;28;20173;-72
2022/07/14 05:06:38;;;;;;;6.70;1.80;;;18.80;99.90;;;;;;5071805;28;20178;-72
2022/07/14 05:09:03;;;;;;;3.50;2.50;;;18.80;99.90;;;;;;5071885;28;20244;-72
2022/07/14 05:11:29;;;;;;;2.90;2.00;;;18.90;99.90;;;;;;5071791;28;20170;-72
2022/07/14 05:13:55;;;;;;;3.60;2.47;;;18.90;99.90;;;;;;5071624;28;20667;-72
2022/07/14 05:16:20;;;;;;;7.00;2.27;;;19.00;99.90;;;;;;5074287;28;20169;-73
2022/07/14 05:18:46;;;;;;;5.00;2.03;;;19.00;99.90;;;;;;5074338;28;20186;-73
2022/07/14 05:21:12;;;;;;;2.93;2.00;;;19.00;99.90;;;;;;5073807;28;20194;-73
2022/07/14 05:23:38;;;;;;;7.13;3.40;;;19.00;99.90;;;;;;5073666;28;20170;-73
2022/07/14 05:26:10;;;;;;;4.83;2.50;;;19.10;99.90;;;;;;5071450;28;20411;-74
2022/07/14 05:28:35;;;;;;;4.60;2.20;;;19.10;99.90;;;;;;5070578;28;20439;-72
2022/07/14 05:31:01;;;;;;;5.17;2.30;;;19.10;99.90;;;;;;5075680;28;20483;-72
2022/07/14 05:33:26;;;;;;;2.80;2.20;;;19.20;99.90;;;;;;5075998;28;20197;-73
2022/07/14 05:35:52;;;;;;;5.17;2.50;;;19.20;99.90;;;;;;5077179;28;20250;-71
2022/07/14 05:38:17;;;;;;;4.50;2.60;;;19.20;99.90;;;;;;5075563;28;20166;-72
2022/07/14 05:40:43;;;;;;;12.10;2.67;;;19.30;99.90;;;;;;5075605;28;20166;-72
2022/07/14 05:43:08;;;;;;;2.97;2.10;;;19.40;99.90;;;;;;5075520;28;20162;-72
2022/07/14 05:45:34;;;;;;;3.87;2.40;;;19.50;99.90;;;;;;5075095;28;20220;-72
2022/07/14 05:47:59;;;;;;;4.20;2.27;;;19.50;99.90;;;;;;5075215;28;20651;-73
2022/07/14 05:50:25;;;;;;;4.13;2.63;;;19.60;99.90;;;;;;5075082;28;20182;-73
2022/07/14 05:52:51;;;;;;;2.67;2.00;;;19.60;99.90;;;;;;5075156;28;20174;-73
2022/07/14 05:55:16;;;;;;;4.37;1.80;;;19.70;99.90;;;;;;5075135;28;20243;-73
2022/07/14 05:57:42;;;;;;;3.90;1.90;;;19.70;99.90;;;;;;5075989;28;20170;-73
2022/07/14 06:00:08;;;;;;;3.10;2.00;;;19.80;99.90;;;;;;5076706;28;20265;-73
2022/07/14 06:02:34;;;;;;;3.20;2.47;;;19.90;99.90;;;;;;5075676;28;20190;-74
2022/07/14 06:04:59;;;;;;;4.30;2.23;;;19.90;99.90;;;;;;5076739;28;20412;-73
2022/07/14 06:07:25;;;;;;;3.90;2.00;;;20.00;99.90;;;;;;5075163;28;20170;-72
2022/07/14 06:09:50;;;;;;;3.53;2.10;;;20.10;99.90;;;;;;5073826;28;20226;-72
2022/07/14 06:12:16;;;;;;;5.23;2.67;;;20.10;99.90;;;;;;5076400;28;20174;-73
2022/07/14 06:14:43;;;;;;;5.87;3.13;;;20.10;99.90;;;;;;5075368;28;20198;-72
2022/07/14 06:17:09;;;;;;;8.57;2.37;;;20.10;99.90;;;;;;5074791;28;20170;-72
2022/07/14 06:19:35;;;;;;;4.00;2.13;;;20.20;99.90;;;;;;5076445;28;20447;-72
2022/07/14 06:22:08;;;;;;;3.33;2.53;;;20.20;99.90;;;;;;5075675;28;20409;-73
2022/07/14 06:24:36;;;;;;;2.90;2.60;;;20.30;99.90;;;;;;5077340;28;20424;-73
2022/07/14 06:27:02;;;;;;;5.93;2.40;;;20.30;99.90;;;;;;5076141;28;20420;-73
2022/07/14 06:29:27;;;;;;;2.80;2.33;;;20.40;99.90;;;;;;5077723;28;20801;-73
2022/07/14 06:31:55;;;;;;;3.40;1.93;;;20.40;99.90;;;;;;5075941;28;20173;-72
2022/07/14 06:34:24;;;;;;;3.43;1.90;;;20.50;99.90;;;;;;5074383;28;20206;-72
2022/07/14 06:36:50;;;;;;;3.10;1.77;;;20.50;99.90;;;;;;5074609;28;20500;-72
2022/07/14 06:39:16;;;;;;;6.60;3.37;;;20.60;99.90;;;;;;5074401;28;20555;-72
2022/07/14 06:41:42;;;;;;;2.47;2.10;;;20.80;99.90;;;;;;5073514;28;20415;-72
2022/07/14 06:44:08;;;;;;;4.10;2.00;;;20.90;99.90;;;;;;5074192;28;20249;-72
2022/07/14 06:46:34;;;;;;;3.20;2.70;;;21.10;99.90;;;;;;5074045;28;20499;-72
2022/07/14 06:48:59;;;;;;;2.63;2.00;;;21.20;99.90;;;;;;5074375;28;20197;-72
2022/07/14 06:51:26;;;;;;;2.60;2.10;;;21.30;99.90;;;;;;5074320;28;20174;-72
2022/07/14 06:53:52;;;;;;;3.27;2.07;;;21.50;99.90;;;;;;5074021;28;20439;-72
2022/07/14 06:56:18;;;;;;;5.63;3.40;;;21.50;99.90;;;;;;5072615;28;20420;-72
2022/07/14 06:58:44;;;;;;;7.03;3.17;;;21.50;99.90;;;;;;5072226;28;20448;-72
2022/07/14 07:01:09;;;;;;;3.87;1.97;;;21.60;99.90;;;;;;5074004;28;20158;-72
2022/07/14 07:03:35;;;;;;;2.60;2.40;;;21.80;99.90;;;;;;5073854;28;20173;-72
2022/07/14 07:08:45;;;;;;;10.03;3.00;;;22.20;99.90;;;;;;5074035;28;20281;-72
2022/07/14 07:11:11;;;;;;;7.57;2.23;;;22.30;99.90;;;;;;5073828;28;20424;-72
2022/07/14 07:13:39;;;;;;;2.83;2.30;;;22.50;99.90;;;;;;5073714;28;20170;-72
2022/07/14 07:16:06;;;;;;;3.67;2.60;;;22.80;99.90;;;;;;5071953;28;20174;-72
2022/07/14 07:18:34;;;;;;;8.33;2.70;;;23.00;99.90;;;;;;5073719;28;20401;-72
2022/07/14 07:20:59;;;;;;;2.93;2.00;;;23.50;99.90;;;;;;5073678;28;20439;-72
2022/07/14 07:23:25;;;;;;;3.43;2.20;;;23.90;99.90;;;;;;5073546;28;20420;-72
2022/07/14 07:25:51;;;;;;;4.63;1.97;;;24.10;99.90;;;;;;5073284;28;20165;-72
2022/07/14 07:28:17;;;;;;;5.63;2.07;;;24.10;99.90;;;;;;5073341;28;20399;-72
2022/07/14 07:30:42;;;;;;;4.87;2.43;;;24.10;99.90;;;;;;5073509;28;20897;-72
2022/07/14 07:33:08;;;;;;;2.40;2.20;;;24.20;99.90;;;;;;5073420;28;20783;-72
2022/07/14 07:35:34;;;;;;;3.10;2.23;;;24.30;99.90;;;;;;5071758;28;20209;-72
2022/07/14 07:38:00;;;;;;;2.50;2.07;;;24.30;99.90;;;;;;5073260;28;20167;-72
2022/07/14 07:40:26;;;;;;;4.70;1.90;;;24.30;99.90;;;;;;5073206;28;20425;-72
2022/07/14 07:42:52;;;;;;;1.97;1.70;;;24.70;99.90;;;;;;5073189;28;20166;-73
2022/07/14 07:45:17;;;;;;;5.50;2.07;;;25.10;99.90;;;;;;5071666;28;20419;-73
2022/07/14 07:47:43;;;;;;;4.20;1.97;;;25.60;99.90;;;;;;5073144;28;20278;-72
2022/07/14 07:50:10;;;;;;;5.50;2.50;;;25.90;99.90;;;;;;5072870;28;20190;-72
2022/07/14 07:52:37;;;;;;;7.80;2.03;;;26.30;99.90;;;;;;5073098;28;20736;-72
2022/07/14 07:55:08;;;;;;;6.30;2.37;;;27.30;99.90;;;;;;5072549;28;20815;-72
2022/07/14 07:57:34;;;;;;;5.23;2.33;;;28.00;99.90;;;;;;5072833;28;20990;-72
2022/07/14 08:00:00;;;;;;;5.33;2.23;;;28.50;99.90;;;;;;5072900;28;20528;-73
2022/07/14 08:02:26;;;;;;;3.83;2.13;;;29.20;99.90;;;;;;5072914;28;20432;-73
2022/07/14 08:04:52;;;;;;;3.53;2.40;;;29.90;99.90;;;;;;5072550;28;20170;-72
2022/07/14 08:07:18;;;;;;;4.87;1.67;;;30.00;97.60;;;;;;5072776;28;20409;-72
2022/07/14 08:09:43;;;;;;;2.63;1.80;;;29.80;96.20;;;;;;5072620;28;20194;-72
2022/07/14 08:12:09;;;;;;;4.30;2.10;;;29.50;94.50;;;;;;5072644;28;20174;-72
2022/07/14 08:14:50;;;;;;;2.83;1.63;;;29.00;96.30;;;;;;5071065;28;20212;-72
2022/07/14 08:17:17;;;;;;;4.47;2.07;;;28.70;96.10;;;;;;5072646;28;20168;-72
2022/07/14 08:19:43;;;;;;;3.83;1.50;;;28.30;96.00;;;;;;5072501;28;20425;-73
2022/07/14 08:22:09;;;;;;;6.83;2.40;;;28.40;95.00;;;;;;5072414;28;20405;-73
2022/07/14 08:24:34;;;;;;;2.30;1.53;;;29.70;95.00;;;;;;5072162;28;20458;-73
2022/07/14 08:27:00;;;;;;;4.20;1.60;;;31.60;87.90;;;;;;5072376;28;20171;-73
2022/07/14 08:29:25;;;;;;;2.00;1.53;;;32.90;77.10;;;;;;5072293;28;20208;-73
2022/07/14 08:31:51;;;;;;;4.70;2.27;;;34.40;66.30;;;;;;5072302;28;20650;-73
2022/07/14 08:34:16;;;;;;;2.80;2.10;;;35.50;60.20;;;;;;5071864;28;20232;-74
2022/07/14 08:36:42;;;;;;;3.30;1.57;;;37.00;53.90;;;;;;5072258;28;20220;-74
2022/07/14 08:39:08;;;;;;;2.40;1.70;;;38.50;48.30;;;;;;5070887;28;20196;-74
2022/07/14 08:41:35;;;;;;;1.77;1.67;;;39.40;44.60;;;;;;5072191;28;20162;-74
2022/07/14 08:44:01;;;;;;;2.27;1.60;;;40.10;43.10;;;;;;5072142;28;20495;-73
2022/07/14 08:46:27;;;;;;;2.20;1.70;;;39.80;40.00;;;;;;5071866;28;20409;-74
2022/07/14 08:48:54;;;;;;;2.90;1.43;;;39.20;39.40;;;;;;5071587;28;20428;-74
2022/07/14 08:51:20;;;;;;;1.83;1.60;;;38.60;40.40;;;;;;5071689;28;20408;-74
2022/07/14 08:53:47;;;;;;;1.60;1.50;;;37.90;41.30;;;;;;5071947;28;20417;-73
2022/07/14 08:56:13;;;;;;;5.37;1.97;;;37.40;42.00;;;;;;5071696;28;20884;-73
2022/07/14 08:58:42;;;;;;;2.60;1.47;;;36.80;41.50;;;;;;5071438;28;20476;-73
2022/07/14 09:01:07;;;;;;;3.00;2.30;;;36.40;42.50;;;;;;5071509;28;20404;-73
2022/07/14 09:03:33;;;;;;;3.07;1.80;;;36.10;42.80;;;;;;5071420;28;20409;-73
2022/07/14 09:05:59;;;;;;;1.83;1.57;;;36.10;42.70;;;;;;5070336;28;20658;-73
2022/07/14 09:08:24;;;;;;;1.93;1.33;;;36.40;44.20;;;;;;5071975;28;20217;-74
2022/07/14 09:10:50;;;;;;;2.23;1.83;;;36.80;43.70;;;;;;5071984;28;20166;-75
2022/07/14 09:13:22;;;;;;;2.50;1.97;;;36.90;42.90;;;;;;5071834;28;20167;-74
2022/07/14 09:15:49;;;;;;;3.80;2.10;;;37.50;41.60;;;;;;5071581;28;20215;-73
2022/07/14 09:18:23;;;;;;;3.97;1.70;;;38.60;41.90;;;;;;5071847;28;20809;-74
2022/07/14 09:20:51;;;;;;;3.13;2.23;;;39.10;39.50;;;;;;5072036;28;20400;-74
2022/07/14 09:23:32;;;;;;;1.80;1.50;;;39.10;37.90;;;;;;5071766;28;20432;-74
2022/07/14 09:26:18;;;;;;;3.60;1.87;;;39.20;39.40;;;;;;5071479;28;20400;-74
2022/07/14 09:28:47;;;;;;;1.87;1.70;;;39.70;38.60;;;;;;5072215;28;20519;-74
2022/07/14 09:31:23;;;;;;;3.23;1.57;;;39.90;38.70;;;;;;5071651;28;20443;-74
2022/07/14 09:33:53;;;;;;;7.67;3.33;;;39.70;35.80;;;;;;5071535;28;20423;-74
2022/07/14 09:36:26;;;;;;;2.87;2.30;;;39.00;36.60;;;;;;5071394;28;20755;-74
2022/07/14 09:38:52;;;;;;;2.33;1.80;;;38.40;37.40;;;;;;5071571;28;20491;-74
2022/07/14 09:41:19;;;;;;;3.60;1.50;;;37.80;38.30;;;;;;5071543;28;20396;-74
2022/07/14 09:44:08;;;;;;;3.50;1.77;;;37.00;39.60;;;;;;5071597;28;20412;-73
2022/07/14 09:47:03;;;;;;;3.67;1.80;;;36.60;39.90;;;;;;5071299;28;20398;-73
2022/07/14 09:49:33;;;;;;;2.90;1.30;;;36.40;41.60;;;;;;5065690;28;20507;-73
2022/07/14 09:52:06;;;;;;;4.57;2.03;;;36.30;40.80;;;;;;5071373;28;20792;-73
2022/07/14 09:54:38;;;;;;;7.60;2.33;;;36.40;42.00;;;;;;5069926;28;20826;-74
2022/07/14 09:57:12;;;;;;;7.20;1.93;;;36.70;41.70;;;;;;5071495;28;20412;-73
2022/07/14 09:59:53;;;;;;;5.03;1.80;;;36.90;40.10;;;;;;5071320;28;20472;-74
2022/07/14 10:02:27;;;;;;;4.20;1.80;;;37.20;39.50;;;;;;5071381;28;20404;-74
2022/07/14 10:05:01;;;;;;;3.30;2.27;;;37.50;38.60;;;;;;5071143;28;20744;-74
2022/07/14 10:07:34;;;;;;;3.03;1.83;;;38.20;38.80;;;;;;5071460;28;20404;-74
2022/07/14 10:10:09;;;;;;;2.73;2.00;;;38.90;37.50;;;;;;5071272;28;20421;-74
2022/07/14 10:12:37;;;;;;;4.17;2.00;;;39.30;36.50;;;;;;5071262;28;20820;-74
2022/07/14 10:15:07;;;;;;;6.10;2.00;;;39.30;35.60;;;;;;5070872;28;20478;-74
2022/07/14 10:17:37;;;;;;;1.90;1.60;;;39.20;33.30;;;;;;5074318;28;20408;-74
2022/07/14 10:20:06;;;;;;;1.40;1.30;;;39.30;34.30;;;;;;5074790;28;20432;-74
2022/07/14 10:22:32;;;;;;;3.23;2.20;;;39.70;35.10;;;;;;5074810;28;20981;-74
2022/07/14 10:24:58;;;;;;;3.53;2.00;;;39.80;33.70;;;;;;5074469;28;20523;-74
2022/07/14 10:27:26;;;;;;;2.13;1.93;;;39.70;32.90;;;;;;5074645;28;20217;-73
2022/07/14 10:29:54;;;;;;;3.37;2.60;;;39.10;33.50;;;;;;5074111;28;20455;-74
2022/07/14 10:32:33;;;;;;;2.60;1.80;;;38.90;34.60;;;;;;5074496;28;20492;-74
2022/07/14 10:35:03;;;;;;;2.60;1.77;;;39.40;34.20;;;;;;5073792;28;20444;-74
2022/07/14 10:37:59;;;;;;;2.67;1.87;;;39.90;33.20;;;;;;5074423;28;20407;-74
2022/07/14 10:40:39;;;;;;;1.90;1.63;;;40.30;31.70;;;;;;5074373;28;20890;-74
2022/07/14 10:43:11;;;;;;;1.87;1.77;;;41.10;33.30;;;;;;5074450;28;20407;-74
2022/07/14 10:45:51;;;;;;;4.60;2.70;;;42.30;32.10;;;;;;5074115;28;20419;-74
2022/07/14 10:48:28;;;;;;;5.53;2.30;;;43.50;31.60;;;;;;5074287;28;20379;-74
2022/07/14 10:51:26;;;;;;;4.40;2.60;;;44.40;30.30;;;;;;5074301;28;20396;-74
2022/07/14 10:54:08;;;;;;;3.63;2.50;;;45.30;29.50;;;;;;5074090;28;20482;-74
2022/07/14 10:56:34;;;;;;;2.70;2.20;;;46.20;29.00;;;;;;5072646;28;20391;-75
2022/07/14 10:59:25;;;;;;;3.87;3.07;;;46.90;28.90;;;;;;5072789;28;20464;-75
2022/07/14 11:02:12;;;;;;;4.40;2.80;;;47.30;27.00;;;;;;5074043;28;20374;-74
2022/07/14 11:05:02;;;;;;;2.50;2.30;;;47.70;27.60;;;;;;5073729;28;20400;-75
2022/07/14 11:07:41;;;;;;;8.20;5.97;;;48.40;27.50;;;;;;5073916;28;20453;-74
2022/07/14 11:10:19;;;;;;;4.30;3.30;;;48.50;27.40;;;;;;5073978;28;20428;-75
2022/07/14 11:12:59;;;;;;;2.93;2.30;;;48.80;26.50;;;;;;5073934;28;20407;-74
2022/07/14 11:15:40;;;;;;;2.33;2.13;;;48.70;26.00;;;;;;5073369;28;20590;-74
2022/07/14 11:18:17;;;;;;;1.83;1.73;;;48.70;26.10;;;;;;5072478;28;20398;-75
2022/07/14 11:20:58;;;;;;;2.40;2.20;;;48.80;25.90;;;;;;5073754;28;20884;-74
2022/07/14 11:23:47;;;;;;;3.00;2.80;;;48.90;26.10;;;;;;5073547;28;20410;-74
2022/07/14 11:26:41;;;;;;;3.90;2.40;;;49.30;26.10;;;;;;5060712;28;20787;-74
2022/07/14 11:29:09;;;;;;;2.50;2.30;;;49.40;25.60;;;;;;5072290;28;20440;-75
2022/07/14 11:31:52;;;;;;;2.50;2.33;;;49.30;24.70;;;;;;5073563;28;20424;-74
2022/07/14 11:37:10;;;;;;;2.20;2.00;;;49.10;24.70;;;;;;5073671;28;20720;-74
2022/07/14 11:39:41;;;;;;;2.30;2.10;;;48.90;24.40;;;;;;5073233;28;20418;-75
2022/07/14 11:42:12;;;;;;;2.30;2.20;;;48.70;24.50;;;;;;5073208;28;20379;-74
2022/07/14 11:44:40;;;;;;;3.10;2.60;;;49.10;24.80;;;;;;5072969;28;20800;-74
2022/07/14 11:47:16;;;;;;;4.90;2.63;;;48.90;24.10;;;;;;5073171;28;20882;-74
2022/07/14 11:49:50;;;;;;;2.30;2.10;;;48.70;24.70;;;;;;5072826;28;20486;-74
2022/07/14 11:52:16;;;;;;;2.43;2.23;;;48.50;24.30;;;;;;5072300;28;20424;-74
2022/07/14 11:54:42;;;;;;;5.43;4.30;;;48.70;25.00;;;;;;5072630;28;20418;-74
2022/07/14 11:57:10;;;;;;;4.50;2.27;;;48.50;24.20;;;;;;5072901;28;20417;-75
2022/07/14 11:59:42;;;;;;;2.20;2.07;;;48.70;25.10;;;;;;5072557;28;20923;-75
2022/07/14 12:02:10;;;;;;;2.60;2.40;;;48.80;25.10;;;;;;5072574;28;20408;-74
2022/07/14 12:04:48;;;;;;;2.00;1.90;;;48.90;25.00;;;;;;5072219;28;20442;-75
2022/07/14 12:07:14;;;;;;;3.60;2.30;;;49.00;25.40;;;;;;5072582;28;20396;-74
2022/07/14 12:09:40;;;;;;;2.80;2.70;;;49.10;25.90;;;;;;5072406;28;20419;-75
2022/07/14 12:12:06;;;;;;;2.57;2.40;;;49.10;24.80;;;;;;5072415;28;20170;-75
2022/07/14 12:14:33;;;;;;;2.70;2.53;;;48.60;24.50;;;;;;5071839;28;20209;-74
2022/07/14 12:16:58;;;;;;;2.80;2.50;;;48.30;24.20;;;;;;5072290;28;20939;-74
2022/07/14 12:19:31;;;;;;;2.17;2.07;;;48.10;25.20;;;;;;5072212;28;20486;-74
2022/07/14 12:22:03;;;;;;;2.53;2.40;;;47.80;25.50;;;;;;5072194;28;20241;-75
2022/07/14 12:24:29;;;;;;;2.70;2.50;;;48.20;26.10;;;;;;5071828;28;20471;-75
2022/07/14 12:27:00;;;;;;;2.33;2.03;;;48.40;25.20;;;;;;5072146;28;20379;-74
2022/07/14 12:29:26;;;;;;;2.47;2.27;;;48.30;25.80;;;;;;5072025;28;20417;-74
2022/07/14 12:31:51;;;;;;;2.40;2.30;;;48.00;25.70;;;;;;5072054;28;20411;-75
2022/07/14 12:34:18;;;;;;;2.53;2.40;;;47.70;26.10;;;;;;5071758;28;20675;-74
2022/07/14 12:36:44;;;;;;;7.63;2.17;;;46.80;25.80;;;;;;5071987;28;20186;-74
2022/07/14 12:39:11;;;;;;;2.00;1.90;;;45.20;25.90;;;;;;5070288;28;20395;-74
2022/07/14 12:41:39;;;;;;;2.23;2.03;;;44.30;27.80;;;;;;5072048;28;20371;-74
2022/07/14 12:44:05;;;;;;;2.80;2.10;;;44.30;28.10;;;;;;5072211;28;20436;-74
2022/07/14 12:46:32;;;;;;;2.23;1.63;;;44.40;27.40;;;;;;5071881;28;20889;-74
2022/07/14 12:49:08;;;;;;;2.33;2.13;;;44.30;26.80;;;;;;5072087;28;20430;-75
2022/07/14 12:51:34;;;;;;;2.20;2.00;;;44.20;27.90;;;;;;5070935;28;20383;-75
2022/07/14 12:54:10;;;;;;;2.47;2.30;;;44.60;27.30;;;;;;5072447;28;20430;-76
2022/07/14 12:56:51;;;;;;;2.90;1.80;;;44.70;27.70;;;;;;5072493;28;20477;-75
2022/07/14 12:59:18;;;;;;;2.40;1.90;;;44.40;27.40;;;;;;5071976;28;20958;-74
2022/07/14 13:02:08;;;;;;;3.33;2.10;;;44.50;27.70;;;;;;5071951;28;20386;-74
2022/07/14 13:04:45;;;;;;;3.27;3.07;;;44.30;27.40;;;;;;5061536;28;20460;-75